createdAt,value
2017-08-16T00:00:42.510Z,99.99
2017-08-16T00:01:52.788Z,99.99
2017-08-16T00:03:03.058Z,99.99
2017-08-16T00:04:13.016Z,99.99
2017-08-16T00:05:22.974Z,99.99
2017-08-16T00:06:33.244Z,99.99
2017-08-16T00:07:43.516Z,99.99
2017-08-16T00:08:53.786Z,99.99
2017-08-16T00:10:03.750Z,99.99
2017-08-16T00:11:14.018Z,99.99
2017-08-16T00:12:23.660Z,99.99
2017-08-16T00:13:33.929Z,99.99
2017-08-16T00:14:43.886Z,99.99
2017-08-16T00:15:54.155Z,99.99
2017-08-16T00:17:04.113Z,99.99
2017-08-16T00:18:14.385Z,99.99
2017-08-16T00:19:24.655Z,99.99
2017-08-16T00:20:33.980Z,99.99
2017-08-16T00:21:44.273Z,99.99
2017-08-16T00:22:54.549Z,99.99
2017-08-16T00:24:04.510Z,99.99
2017-08-16T00:25:14.781Z,99.99
2017-08-16T00:26:25.052Z,99.99
2017-08-16T00:27:34.698Z,99.99
2017-08-16T00:28:44.972Z,99.99
2017-08-16T00:29:55.246Z,99.99
2017-08-16T00:31:05.516Z,99.99
2017-08-16T00:32:15.785Z,99.99
2017-08-16T00:33:26.069Z,99.99
2017-08-16T00:34:36.349Z,99.99
2017-08-16T00:35:46.618Z,99.99
2017-08-16T00:36:56.894Z,99.99
2017-08-16T00:38:06.859Z,99.99
2017-08-16T00:39:16.823Z,99.99
2017-08-16T00:40:27.096Z,99.99
2017-08-16T00:41:39.945Z,99.99
2017-08-16T00:42:49.908Z,99.99
2017-08-16T00:44:00.180Z,99.99
2017-08-16T00:45:10.141Z,99.99
2017-08-16T00:46:20.414Z,99.99
2017-08-16T00:47:30.685Z,99.99
2017-08-16T00:48:40.326Z,99.99
2017-08-16T00:49:50.601Z,99.99
2017-08-16T00:51:00.877Z,99.99
2017-08-16T00:52:11.155Z,99.99
2017-08-16T00:53:21.432Z,99.99
2017-08-16T00:54:31.388Z,99.99
2017-08-16T00:55:41.659Z,99.99
2017-08-16T00:56:51.932Z,99.99
2017-08-16T00:58:01.890Z,99.99
2017-08-16T00:59:12.163Z,99.99
2017-08-16T01:00:22.447Z,99.99
2017-08-16T01:01:32.718Z,99.99
2017-08-16T01:02:42.985Z,99.99
2017-08-16T01:03:52.941Z,99.99
2017-08-16T01:05:03.225Z,99.99
2017-08-16T01:06:13.499Z,99.99
2017-08-16T01:07:23.771Z,99.99
2017-08-16T01:08:33.729Z,99.99
2017-08-16T01:09:43.684Z,99.99
2017-08-16T01:10:53.645Z,99.99
2017-08-16T01:12:03.919Z,99.99
2017-08-16T01:13:14.192Z,99.99
2017-08-16T01:14:24.158Z,99.99
2017-08-16T01:15:34.119Z,99.99
2017-08-16T01:16:44.395Z,99.99
2017-08-16T01:17:54.666Z,99.99
2017-08-16T01:19:04.624Z,99.99
2017-08-16T01:20:14.895Z,99.99
2017-08-16T01:21:25.166Z,99.99
2017-08-16T01:22:35.125Z,99.99
2017-08-16T01:23:44.767Z,99.99
2017-08-16T01:24:55.040Z,99.99
2017-08-16T01:26:05.002Z,99.99
2017-08-16T01:27:14.960Z,99.99
2017-08-16T01:28:25.233Z,99.99
2017-08-16T01:29:35.506Z,99.99
2017-08-16T01:30:44.834Z,99.99
2017-08-16T01:31:55.109Z,99.99
2017-08-16T01:33:05.078Z,99.99
2017-08-16T01:34:15.349Z,99.99
2017-08-16T01:35:25.307Z,99.99
2017-08-16T01:36:34.953Z,99.99
2017-08-16T01:37:44.922Z,99.99
2017-08-16T01:38:55.205Z,99.99
2017-08-16T01:40:05.503Z,99.99
2017-08-16T01:41:15.459Z,99.99
2017-08-16T01:42:25.119Z,99.99
2017-08-16T01:43:34.768Z,99.99
2017-08-16T01:44:44.723Z,99.99
2017-08-16T01:45:54.998Z,99.99
2017-08-16T01:47:04.958Z,99.99
2017-08-16T01:48:15.230Z,99.99
2017-08-16T01:49:25.502Z,99.99
2017-08-16T01:50:35.456Z,99.99
2017-08-16T01:51:45.098Z,99.99
2017-08-16T01:52:55.375Z,99.99
2017-08-16T01:54:05.672Z,99.99
2017-08-16T01:55:15.949Z,99.99
2017-08-16T01:56:26.223Z,99.99
2017-08-16T01:57:36.498Z,99.99
2017-08-16T01:58:46.779Z,99.99
2017-08-16T01:59:57.052Z,99.99
2017-08-16T02:01:07.018Z,99.99
2017-08-16T02:02:17.291Z,99.99
2017-08-16T02:03:27.248Z,99.99
2017-08-16T02:04:37.205Z,99.99
2017-08-16T02:05:47.164Z,99.99
2017-08-16T02:06:57.123Z,99.99
2017-08-16T02:08:07.087Z,99.99
2017-08-16T02:09:17.359Z,99.99
2017-08-16T02:10:27.631Z,99.99
2017-08-16T02:11:37.585Z,99.99
2017-08-16T02:12:47.237Z,99.99
2017-08-16T02:13:57.510Z,99.99
2017-08-16T02:15:07.178Z,99.99
2017-08-16T02:16:17.454Z,99.99
2017-08-16T02:17:27.097Z,99.99
2017-08-16T02:18:37.058Z,99.99
2017-08-16T02:19:47.338Z,99.99
2017-08-16T02:20:57.298Z,99.99
2017-08-16T02:22:07.280Z,99.99
2017-08-16T02:23:17.236Z,99.99
2017-08-16T02:24:27.506Z,99.99
2017-08-16T02:25:37.779Z,99.99
2017-08-16T02:26:48.067Z,99.99
2017-08-16T02:27:57.711Z,99.99
2017-08-16T02:29:07.982Z,99.99
2017-08-16T02:30:18.261Z,99.99
2017-08-16T02:31:28.533Z,99.99
2017-08-16T02:32:38.499Z,99.99
2017-08-16T02:33:48.780Z,99.99
2017-08-16T02:34:58.741Z,99.99
2017-08-16T02:36:09.026Z,99.99
2017-08-16T02:37:19.306Z,99.99
2017-08-16T02:38:29.263Z,99.99
2017-08-16T02:39:39.549Z,99.99
2017-08-16T02:40:49.821Z,99.99
2017-08-16T02:41:59.800Z,99.99
2017-08-16T02:43:09.765Z,99.99
2017-08-16T02:44:20.040Z,99.99
2017-08-16T02:45:30.317Z,99.99
2017-08-16T02:46:40.278Z,99.99
2017-08-16T02:47:50.238Z,99.99
2017-08-16T02:49:00.514Z,99.99
2017-08-16T02:50:10.786Z,99.99
2017-08-16T02:51:20.748Z,99.99
2017-08-16T02:52:30.706Z,99.99
2017-08-16T02:53:40.350Z,99.99
2017-08-16T02:54:50.624Z,99.99
2017-08-16T02:56:00.904Z,99.99
2017-08-16T02:57:11.176Z,99.99
2017-08-16T02:58:21.447Z,99.99
2017-08-16T02:59:31.721Z,99.99
2017-08-16T03:00:41.368Z,99.99
2017-08-16T03:01:51.333Z,99.99
2017-08-16T03:03:01.299Z,99.99
2017-08-16T03:04:11.259Z,99.99
2017-08-16T03:05:21.535Z,99.99
2017-08-16T03:06:31.179Z,99.99
2017-08-16T03:07:41.451Z,99.99
2017-08-16T03:08:51.722Z,99.99
2017-08-16T03:10:01.367Z,99.99
2017-08-16T03:11:11.641Z,99.99
2017-08-16T03:12:21.917Z,99.99
2017-08-16T03:13:32.193Z,99.99
2017-08-16T03:14:42.150Z,99.99
2017-08-16T03:15:52.106Z,99.99
2017-08-16T03:17:02.068Z,99.99
2017-08-16T03:18:12.025Z,99.99
2017-08-16T03:19:22.296Z,99.99
2017-08-16T03:20:32.577Z,99.99
2017-08-16T03:21:42.540Z,99.99
2017-08-16T03:22:52.505Z,99.99
2017-08-16T03:24:02.151Z,99.99
2017-08-16T03:25:12.426Z,99.99
2017-08-16T03:26:22.699Z,99.99
2017-08-16T03:27:32.970Z,99.99
2017-08-16T03:28:43.244Z,99.99
2017-08-16T03:29:52.887Z,99.99
2017-08-16T03:31:03.169Z,99.99
2017-08-16T03:32:12.815Z,99.99
2017-08-16T03:33:22.771Z,99.99
2017-08-16T03:34:33.043Z,99.99
2017-08-16T03:35:43.001Z,99.99
2017-08-16T03:36:53.276Z,99.99
2017-08-16T03:38:03.552Z,99.99
2017-08-16T03:39:13.507Z,99.99
2017-08-16T03:40:23.781Z,99.99
2017-08-16T03:41:33.745Z,99.99
2017-08-16T03:42:44.017Z,99.99
2017-08-16T03:43:54.289Z,99.99
2017-08-16T03:45:04.250Z,99.99
2017-08-16T03:46:14.523Z,99.99
2017-08-16T03:47:24.807Z,99.99
2017-08-16T03:48:35.128Z,99.99
2017-08-16T03:49:45.398Z,99.99
2017-08-16T03:50:55.669Z,99.99
2017-08-16T03:52:05.942Z,99.99
2017-08-16T03:53:16.214Z,99.99
2017-08-16T03:54:26.515Z,99.99
2017-08-16T03:55:36.477Z,99.99
2017-08-16T03:56:46.748Z,99.99
2017-08-16T03:57:57.020Z,99.99
2017-08-16T03:59:06.984Z,99.99
2017-08-16T04:00:16.941Z,99.99
2017-08-16T04:01:27.212Z,99.99
2017-08-16T04:02:37.482Z,99.99
2017-08-16T04:03:47.461Z,99.99
2017-08-16T04:04:57.733Z,99.99
2017-08-16T04:06:08.006Z,99.99
2017-08-16T04:07:17.967Z,99.99
2017-08-16T04:08:28.244Z,99.99
2017-08-16T04:09:38.515Z,99.99
2017-08-16T04:10:48.794Z,99.99
2017-08-16T04:11:58.754Z,99.99
2017-08-16T04:13:08.403Z,99.99
2017-08-16T04:14:18.674Z,99.99
2017-08-16T04:15:28.947Z,99.99
2017-08-16T04:16:39.230Z,99.99
2017-08-16T04:17:49.499Z,99.99
2017-08-16T04:18:58.828Z,99.99
2017-08-16T04:20:09.098Z,99.99
2017-08-16T04:21:19.393Z,99.99
2017-08-16T04:22:29.351Z,99.99
2017-08-16T04:23:39.631Z,99.99
2017-08-16T04:24:49.907Z,99.99
2017-08-16T04:25:59.867Z,99.99
2017-08-16T04:27:09.825Z,99.99
2017-08-16T04:28:20.095Z,99.99
2017-08-16T04:29:30.380Z,99.99
2017-08-16T04:30:40.337Z,99.99
2017-08-16T04:31:50.609Z,99.99
2017-08-16T04:33:00.888Z,99.99
2017-08-16T04:34:11.172Z,99.99
2017-08-16T04:35:21.128Z,99.99
2017-08-16T04:36:31.084Z,99.99
2017-08-16T04:37:41.045Z,99.99
2017-08-16T04:38:51.314Z,99.99
2017-08-16T04:40:01.586Z,99.99
2017-08-16T04:41:11.541Z,99.99
2017-08-16T04:42:21.189Z,99.99
2017-08-16T04:43:31.458Z,99.99
2017-08-16T04:44:41.788Z,99.99
2017-08-16T04:45:51.758Z,99.99
2017-08-16T04:47:02.031Z,99.99
2017-08-16T04:48:12.302Z,99.99
2017-08-16T04:49:22.259Z,99.99
2017-08-16T04:50:32.214Z,99.99
2017-08-16T04:51:42.490Z,99.99
2017-08-16T04:52:52.132Z,99.99
2017-08-16T04:54:02.405Z,99.99
2017-08-16T04:55:12.688Z,99.99
2017-08-16T04:56:22.964Z,99.99
2017-08-16T04:57:32.607Z,99.99
2017-08-16T04:58:41.938Z,99.99
2017-08-16T04:59:52.209Z,99.99
2017-08-16T05:01:02.172Z,99.99
2017-08-16T05:02:12.451Z,99.99
2017-08-16T05:03:22.411Z,99.99
2017-08-16T05:04:32.058Z,99.99
2017-08-16T05:05:42.337Z,99.99
2017-08-16T05:06:52.605Z,99.99
2017-08-16T05:08:02.561Z,99.99
2017-08-16T05:09:12.547Z,99.99
2017-08-16T05:10:22.816Z,99.99
2017-08-16T05:11:33.086Z,99.99
2017-08-16T05:12:43.356Z,99.99
2017-08-16T05:13:53.318Z,99.99
2017-08-16T05:15:03.599Z,99.99
2017-08-16T05:16:13.831Z,99.99
2017-08-16T05:17:23.786Z,99.99
2017-08-16T05:18:33.745Z,99.99
2017-08-16T05:19:44.020Z,99.99
2017-08-16T05:20:54.291Z,99.99
2017-08-16T05:22:04.269Z,99.99
2017-08-16T05:23:14.540Z,99.99
2017-08-16T05:24:24.816Z,99.99
2017-08-16T05:25:34.771Z,99.99
2017-08-16T05:26:44.729Z,99.99
2017-08-16T05:27:54.687Z,99.99
2017-08-16T05:29:04.969Z,99.99
2017-08-16T05:30:15.238Z,99.99
2017-08-16T05:31:25.505Z,99.99
2017-08-16T05:32:34.831Z,99.99
2017-08-16T05:33:44.786Z,99.99
2017-08-16T05:34:55.056Z,99.99
2017-08-16T05:36:05.017Z,99.99
2017-08-16T05:37:14.659Z,99.99
2017-08-16T05:38:24.626Z,99.99
2017-08-16T05:39:34.591Z,99.99
2017-08-16T05:40:44.863Z,99.99
2017-08-16T05:41:54.823Z,99.99
2017-08-16T05:43:04.780Z,99.99
2017-08-16T05:44:15.053Z,99.99
2017-08-16T05:45:24.697Z,99.99
2017-08-16T05:46:34.659Z,99.99
2017-08-16T05:47:44.621Z,99.99
2017-08-16T05:48:54.896Z,99.99
2017-08-16T05:50:04.852Z,99.99
2017-08-16T05:51:14.496Z,99.99
2017-08-16T05:52:24.488Z,99.99
2017-08-16T05:53:34.760Z,99.99
2017-08-16T05:54:44.722Z,99.99
2017-08-16T05:55:54.994Z,99.99
2017-08-16T05:57:04.987Z,99.99
2017-08-16T05:58:14.952Z,99.99
2017-08-16T05:59:25.230Z,99.99
2017-08-16T06:00:35.502Z,99.99
2017-08-16T06:01:45.789Z,99.99
2017-08-16T06:02:56.065Z,99.99
2017-08-16T06:04:06.344Z,99.99
2017-08-16T06:05:16.637Z,99.99
2017-08-16T06:06:26.907Z,99.99
2017-08-16T06:07:37.178Z,99.99
2017-08-16T06:08:47.136Z,99.99
2017-08-16T06:09:57.405Z,99.99
2017-08-16T06:11:07.682Z,99.99
2017-08-16T06:12:17.646Z,99.99
2017-08-16T06:13:27.922Z,99.99
2017-08-16T06:14:38.197Z,99.99
2017-08-16T06:15:48.160Z,99.99
2017-08-16T06:16:58.431Z,99.99
2017-08-16T06:18:08.708Z,99.99
2017-08-16T06:19:18.351Z,99.99
2017-08-16T06:20:28.308Z,99.99
2017-08-16T06:21:38.578Z,99.99
2017-08-16T06:22:48.535Z,99.99
2017-08-16T06:23:58.499Z,99.99
2017-08-16T06:25:08.458Z,99.99
2017-08-16T06:26:18.418Z,99.99
2017-08-16T06:27:28.062Z,99.99
2017-08-16T06:28:38.334Z,99.99
2017-08-16T06:29:48.616Z,99.99
2017-08-16T06:30:58.921Z,99.99
2017-08-16T06:32:08.573Z,99.99
2017-08-16T06:33:18.541Z,99.99
2017-08-16T06:34:28.508Z,99.99
2017-08-16T06:35:38.790Z,99.99
2017-08-16T06:36:49.065Z,99.99
2017-08-16T06:37:59.345Z,99.99
2017-08-16T06:39:09.308Z,99.99
2017-08-16T06:40:19.578Z,99.99
2017-08-16T06:41:29.539Z,99.99
2017-08-16T06:42:39.823Z,99.99
2017-08-16T06:43:50.110Z,99.99
2017-08-16T06:45:00.382Z,99.99
2017-08-16T06:46:10.663Z,99.99
2017-08-16T06:47:20.942Z,99.99
2017-08-16T06:48:31.223Z,99.99
2017-08-16T06:49:41.178Z,99.99
2017-08-16T06:50:51.139Z,99.99
2017-08-16T06:52:01.096Z,99.99
2017-08-16T06:53:10.744Z,99.99
2017-08-16T06:54:21.029Z,99.99
2017-08-16T06:55:31.306Z,99.99
2017-08-16T06:56:41.576Z,99.99
2017-08-16T06:57:51.855Z,99.99
2017-08-16T06:59:01.503Z,99.63
2017-08-16T07:00:11.463Z,99.99
2017-08-16T07:01:21.736Z,99.99
2017-08-16T07:02:31.390Z,99.99
2017-08-16T07:03:41.352Z,99.99
2017-08-16T07:04:51.658Z,99.99
2017-08-16T07:06:01.935Z,99.99
2017-08-16T07:07:12.211Z,99.99
2017-08-16T07:08:22.508Z,99.99
2017-08-16T07:09:32.155Z,99.99
2017-08-16T07:10:42.451Z,99.99
2017-08-16T07:11:52.720Z,99.99
2017-08-16T07:13:02.680Z,99.99
2017-08-16T07:14:12.957Z,99.99
2017-08-16T07:15:23.232Z,99.99
2017-08-16T07:16:33.189Z,99.99
2017-08-16T07:17:43.150Z,99.99
2017-08-16T07:18:53.424Z,99.99
2017-08-16T07:20:03.387Z,99.99
2017-08-16T07:21:13.346Z,99.99
2017-08-16T07:22:23.306Z,99.99
2017-08-16T07:23:33.588Z,99.99
2017-08-16T07:24:44.016Z,99.99
2017-08-16T07:25:54.293Z,99.99
2017-08-16T07:27:04.574Z,99.99
2017-08-16T07:28:14.849Z,99.99
2017-08-16T07:29:25.122Z,99.99
2017-08-16T07:30:37.549Z,99.99
2017-08-16T07:31:47.824Z,99.99
2017-08-16T07:32:58.098Z,99.99
2017-08-16T07:34:08.061Z,99.99
2017-08-16T07:35:18.333Z,99.99
2017-08-16T07:36:28.288Z,99.99
2017-08-16T07:37:38.647Z,99.99
2017-08-16T07:38:48.651Z,99.99
2017-08-16T07:39:58.933Z,99.99
2017-08-16T07:41:08.893Z,99.99
2017-08-16T07:42:18.862Z,99.99
2017-08-16T07:43:29.146Z,99.99
2017-08-16T07:44:38.792Z,98.38
2017-08-16T07:45:48.760Z,98.19
2017-08-16T07:46:59.032Z,97.42
2017-08-16T07:48:08.996Z,98.38
2017-08-16T07:49:18.642Z,98.86
2017-08-16T07:50:28.315Z,98.57
2017-08-16T07:51:38.591Z,99.99
2017-08-16T07:52:48.869Z,99.72
2017-08-16T07:53:58.555Z,98.47
2017-08-16T07:55:08.525Z,99.72
2017-08-16T07:56:18.806Z,96.94
2017-08-16T07:57:28.764Z,98.86
2017-08-16T07:58:38.727Z,96.37
2017-08-16T07:59:48.370Z,97.14
2017-08-16T08:00:58.639Z,97.8
2017-08-16T08:02:08.917Z,96.47
2017-08-16T08:03:18.563Z,96.08
2017-08-16T08:04:28.837Z,93.59
2017-08-16T08:05:38.847Z,94.84
2017-08-16T08:06:49.158Z,96.27
2017-08-16T08:07:59.172Z,96.22
2017-08-16T08:09:09.444Z,96.51
2017-08-16T08:10:18.770Z,95.94
2017-08-16T08:11:28.437Z,96.13
2017-08-16T08:12:38.712Z,96.61
2017-08-16T08:13:48.681Z,96.03
2017-08-16T08:14:58.957Z,93.83
2017-08-16T08:16:08.293Z,94.12
2017-08-16T08:17:18.571Z,92.58
2017-08-16T08:18:28.537Z,93.63
2017-08-16T08:19:38.496Z,93.35
2017-08-16T08:20:48.765Z,93.35
2017-08-16T08:21:58.727Z,92.68
2017-08-16T08:23:09.000Z,91.28
2017-08-16T08:24:19.274Z,91.24
2017-08-16T08:25:29.550Z,87.12
2017-08-16T08:26:39.519Z,86.93
2017-08-16T08:27:49.485Z,87.41
2017-08-16T08:28:59.760Z,87.41
2017-08-16T08:30:09.403Z,86.45
2017-08-16T08:31:19.673Z,87.98
2017-08-16T08:32:29.951Z,88.75
2017-08-16T08:33:40.238Z,89.32
2017-08-16T08:34:50.508Z,87.21
2017-08-16T08:36:00.468Z,87.7
2017-08-16T08:37:10.432Z,88.17
2017-08-16T08:38:20.389Z,87.21
2017-08-16T08:39:30.661Z,89.61
2017-08-16T08:40:40.934Z,90.23
2017-08-16T08:41:51.211Z,90.57
2017-08-16T08:43:01.183Z,90.14
2017-08-16T08:44:11.465Z,90.04
2017-08-16T08:45:21.111Z,87.64
2017-08-16T08:46:31.066Z,86.49
2017-08-16T08:47:41.026Z,85.34
2017-08-16T08:48:51.301Z,88.02
2017-08-16T08:50:01.260Z,85.63
2017-08-16T08:51:11.533Z,82.94
2017-08-16T08:52:21.502Z,82.94
2017-08-16T08:53:31.463Z,85.05
2017-08-16T08:54:41.107Z,83.33
2017-08-16T08:55:51.392Z,83.14
2017-08-16T08:57:01.671Z,82.37
2017-08-16T08:58:11.958Z,85.82
2017-08-16T08:59:21.916Z,86.4
2017-08-16T09:00:31.562Z,83.52
2017-08-16T09:01:41.520Z,82.94
2017-08-16T09:02:51.481Z,84
2017-08-16T09:04:01.438Z,83.52
2017-08-16T09:05:11.714Z,84.19
2017-08-16T09:06:21.676Z,83.75
2017-08-16T09:07:31.635Z,82.03
2017-08-16T09:08:41.604Z,84.91
2017-08-16T09:09:51.566Z,82.65
2017-08-16T09:11:01.525Z,83.94
2017-08-16T09:12:11.804Z,83.85
2017-08-16T09:13:21.449Z,81.93
2017-08-16T09:14:31.753Z,81.35
2017-08-16T09:15:41.088Z,79.34
2017-08-16T09:16:50.730Z,82.21
2017-08-16T09:18:00.693Z,79.72
2017-08-16T09:19:10.975Z,79.53
2017-08-16T09:20:20.936Z,78.57
2017-08-16T09:21:30.892Z,78.57
2017-08-16T09:22:41.166Z,78.77
2017-08-16T09:23:51.443Z,80.3
2017-08-16T09:25:01.715Z,79.14
2017-08-16T09:26:11.377Z,79.82
2017-08-16T09:27:21.656Z,80.49
2017-08-16T09:28:31.623Z,78.96
2017-08-16T09:29:41.898Z,78.86
2017-08-16T09:30:52.173Z,78.28
2017-08-16T09:32:02.448Z,77.42
2017-08-16T09:33:11.778Z,76.56
2017-08-16T09:34:21.750Z,78.09
2017-08-16T09:35:32.025Z,77.23
2017-08-16T09:36:42.298Z,77.8
2017-08-16T09:37:52.571Z,77.04
2017-08-16T09:39:02.846Z,78
2017-08-16T09:40:12.178Z,77.75
2017-08-16T09:41:22.145Z,78.42
2017-08-16T09:42:32.429Z,76.79
2017-08-16T09:43:42.736Z,77.17
2017-08-16T09:44:52.867Z,78.13
2017-08-16T09:46:03.149Z,79.76
2017-08-16T09:47:13.109Z,76.5
2017-08-16T09:48:23.078Z,75.92
2017-08-16T09:49:33.351Z,77.26
2017-08-16T09:50:43.310Z,76.5
2017-08-16T09:51:53.587Z,76.59
2017-08-16T09:53:03.561Z,77.26
2017-08-16T09:54:13.525Z,76.5
2017-08-16T09:55:23.175Z,75.54
2017-08-16T09:56:33.470Z,76.21
2017-08-16T09:57:43.747Z,74.52
2017-08-16T09:58:54.028Z,74.13
2017-08-16T10:00:03.564Z,72.69
2017-08-16T10:01:13.529Z,74.71
2017-08-16T10:02:23.493Z,75.87
2017-08-16T10:03:33.774Z,75.1
2017-08-16T10:04:43.737Z,77.31
2017-08-16T10:05:54.016Z,75.87
2017-08-16T10:07:03.661Z,76.54
2017-08-16T10:08:13.638Z,77.21
2017-08-16T10:09:22.974Z,74.13
2017-08-16T10:10:32.936Z,73.66
2017-08-16T10:11:42.900Z,74.43
2017-08-16T10:12:52.861Z,74.9
2017-08-16T10:14:02.823Z,74.9
2017-08-16T10:15:12.826Z,75
2017-08-16T10:16:23.103Z,72.06
2017-08-16T10:17:33.401Z,73.46
2017-08-16T10:18:43.050Z,71.39
2017-08-16T10:19:53.321Z,71.67
2017-08-16T10:21:02.971Z,71.67
2017-08-16T10:22:13.253Z,73.02
2017-08-16T10:23:23.214Z,72.16
2017-08-16T10:24:33.490Z,72.44
2017-08-16T10:25:43.460Z,71.87
2017-08-16T10:26:53.741Z,73.02
2017-08-16T10:28:03.699Z,67.25
2017-08-16T10:29:13.345Z,67.25
2017-08-16T10:30:23.622Z,68.79
2017-08-16T10:31:33.897Z,68.89
2017-08-16T10:32:43.860Z,69.95
2017-08-16T10:33:53.508Z,70.94
2017-08-16T10:35:03.472Z,71.14
2017-08-16T10:36:13.434Z,67.29
2017-08-16T10:37:23.401Z,70.75
2017-08-16T10:38:33.047Z,68.83
2017-08-16T10:39:43.331Z,69.21
2017-08-16T10:40:53.608Z,66.91
2017-08-16T10:42:03.573Z,65.97
2017-08-16T10:43:13.228Z,68.38
2017-08-16T10:44:23.506Z,67.32
2017-08-16T10:45:33.469Z,67.65
2017-08-16T10:46:43.430Z,64.34
2017-08-16T10:47:53.705Z,66.46
2017-08-16T10:49:03.982Z,65.69
2017-08-16T10:50:13.947Z,66.07
2017-08-16T10:51:24.229Z,65.81
2017-08-16T10:52:34.192Z,65.91
2017-08-16T10:53:44.476Z,65.63
2017-08-16T10:54:54.752Z,62.45
2017-08-16T10:56:04.711Z,62.29
2017-08-16T10:57:14.991Z,64.21
2017-08-16T10:58:25.268Z,64.21
2017-08-16T10:59:35.233Z,65.27
2017-08-16T11:00:45.515Z,62
2017-08-16T11:01:55.479Z,65.56
2017-08-16T11:03:05.443Z,63.15
2017-08-16T11:04:15.407Z,61.16
2017-08-16T11:05:25.693Z,62.29
2017-08-16T11:06:35.662Z,64.79
2017-08-16T11:07:45.942Z,64.82
2017-08-16T11:08:56.220Z,62.41
2017-08-16T11:10:06.513Z,60.3
2017-08-16T11:11:16.481Z,62.6
2017-08-16T11:12:26.448Z,62.12
2017-08-16T11:13:36.414Z,59.65
2017-08-16T11:14:46.698Z,62.15
2017-08-16T11:15:56.980Z,60.03
2017-08-16T11:17:07.262Z,63.41
2017-08-16T11:18:16.912Z,62.06
2017-08-16T11:19:26.876Z,59.2
2017-08-16T11:20:36.843Z,58.72
2017-08-16T11:21:47.144Z,57.65
2017-08-16T11:22:57.433Z,56.88
2017-08-16T11:24:07.719Z,56.21
2017-08-16T11:25:17.369Z,58.23
2017-08-16T11:26:27.650Z,56.88
2017-08-16T11:27:37.934Z,56.88
2017-08-16T11:28:48.212Z,56.98
2017-08-16T11:29:58.490Z,56.79
2017-08-16T11:31:08.454Z,55.59
2017-08-16T11:32:18.737Z,56
2017-08-16T11:33:28.707Z,54.9
2017-08-16T11:34:38.359Z,50.09
2017-08-16T11:35:48.012Z,48.66
2017-08-16T11:36:58.292Z,49.46
2017-08-16T11:38:07.954Z,47.62
2017-08-16T11:39:17.608Z,48.76
2017-08-16T11:40:27.265Z,49.65
2017-08-16T11:41:37.554Z,47.38
2017-08-16T11:42:47.524Z,46
2017-08-16T11:43:57.810Z,49.85
2017-08-16T11:45:08.093Z,51.86
2017-08-16T11:46:18.064Z,50.62
2017-08-16T11:47:28.355Z,44.61
2017-08-16T11:48:38.651Z,44.71
2017-08-16T11:49:48.944Z,44.15
2017-08-16T11:50:58.622Z,41.16
2017-08-16T11:52:08.938Z,41.06
2017-08-16T11:53:19.339Z,41.97
2017-08-16T11:54:29.625Z,43.7
2017-08-16T11:55:38.663Z,44.53
2017-08-16T11:56:48.330Z,44.04
2017-08-16T11:57:58.302Z,44.7
2017-08-16T11:59:08.592Z,43.75
2017-08-16T12:00:18.566Z,43.77
2017-08-16T12:01:28.544Z,41.47
2017-08-16T12:02:38.520Z,42.46
2017-08-16T12:03:48.809Z,43.64
2017-08-16T12:04:59.094Z,42.4
2017-08-16T12:06:08.750Z,39.8
2017-08-16T12:07:19.040Z,37.6
2017-08-16T12:08:29.331Z,40.77
2017-08-16T12:09:39.315Z,39.32
2017-08-16T12:10:48.970Z,38.56
2017-08-16T12:11:58.949Z,38.67
2017-08-16T12:13:09.234Z,39.36
2017-08-16T12:14:19.230Z,38.65
2017-08-16T12:15:29.204Z,38.77
2017-08-16T12:16:39.505Z,40.91
2017-08-16T12:17:49.803Z,37.92
2017-08-16T12:19:00.099Z,37.84
2017-08-16T12:20:10.142Z,37.37
2017-08-16T12:21:19.807Z,36.87
2017-08-16T12:22:30.099Z,37.45
2017-08-16T12:23:40.078Z,38.71
2017-08-16T12:24:50.067Z,37.64
2017-08-16T12:26:00.365Z,40.25
2017-08-16T12:27:10.342Z,36.08
2017-08-16T12:28:19.713Z,38.05
2017-08-16T12:29:29.700Z,36.22
2017-08-16T12:30:39.370Z,36.43
2017-08-16T12:31:49.662Z,35.6
2017-08-16T12:32:59.952Z,39.47
2017-08-16T12:34:09.929Z,35.41
2017-08-16T12:35:19.912Z,34.35
2017-08-16T12:36:30.209Z,36.96
2017-08-16T12:37:40.200Z,38.64
2017-08-16T12:38:50.175Z,39.72
2017-08-16T12:40:00.468Z,37.72
2017-08-16T12:41:10.457Z,37.32
2017-08-16T12:42:19.178Z,35.6
2017-08-16T12:43:29.472Z,34.92
2017-08-16T12:44:39.453Z,37.56
2017-08-16T12:45:49.752Z,32.32
2017-08-16T12:46:59.742Z,34.25
2017-08-16T12:48:10.038Z,32.97
2017-08-16T12:49:20.048Z,30.85
2017-08-16T12:50:30.345Z,30.17
2017-08-16T12:51:40.640Z,32.1
2017-08-16T12:52:50.931Z,33.01
2017-08-16T12:54:00.942Z,34.19
2017-08-16T12:55:10.920Z,31.28
2017-08-16T12:56:20.901Z,32.76
2017-08-16T12:57:30.884Z,31.22
2017-08-16T12:58:41.187Z,29.96
2017-08-16T12:59:51.477Z,29.57
2017-08-16T13:01:01.140Z,30.76
2017-08-16T13:02:10.800Z,29.02
2017-08-16T13:03:20.150Z,30.4
2017-08-16T13:04:30.444Z,29.44
2017-08-16T13:05:40.426Z,28.16
2017-08-16T13:06:50.406Z,28.06
2017-08-16T13:08:00.712Z,27.76
2017-08-16T13:09:11.008Z,28.32
2017-08-16T13:10:20.987Z,27.51
2017-08-16T13:11:30.648Z,29.33
2017-08-16T13:12:40.938Z,29.15
2017-08-16T13:13:51.230Z,30
2017-08-16T13:15:01.523Z,30.94
2017-08-16T13:16:11.848Z,31.9
2017-08-16T13:17:21.828Z,30.72
2017-08-16T13:18:32.117Z,32.54
2017-08-16T13:19:42.093Z,34.64
2017-08-16T13:20:52.380Z,34.81
2017-08-16T13:22:02.347Z,36.33
2017-08-16T13:23:12.642Z,36.8
2017-08-16T13:24:22.614Z,37.26
2017-08-16T13:25:32.587Z,37.28
2017-08-16T13:26:42.870Z,37.17
2017-08-16T13:27:52.842Z,38.12
2017-08-16T13:29:03.125Z,37.52
2017-08-16T13:30:13.102Z,39.11
2017-08-16T13:31:23.073Z,38.25
2017-08-16T13:32:32.729Z,36.35
2017-08-16T13:33:42.731Z,35.49
2017-08-16T13:34:52.700Z,33.98
2017-08-16T13:36:02.670Z,33.61
2017-08-16T13:37:12.959Z,34.69
2017-08-16T13:38:22.932Z,32.68
2017-08-16T13:39:33.224Z,32.32
2017-08-16T13:40:43.512Z,29.81
2017-08-16T13:41:53.484Z,30.21
2017-08-16T13:43:03.776Z,30.62
2017-08-16T13:44:14.062Z,29.46
2017-08-16T13:45:24.359Z,27.42
2017-08-16T13:46:34.651Z,30.65
2017-08-16T13:47:44.947Z,28.52
2017-08-16T13:48:55.238Z,26.97
2017-08-16T13:50:05.215Z,25.79
2017-08-16T13:51:14.882Z,28.34
2017-08-16T13:52:25.180Z,25.43
2017-08-16T13:53:35.161Z,23.66
2017-08-16T13:54:45.136Z,23.18
2017-08-16T13:55:55.426Z,24.04
2017-08-16T13:57:05.089Z,24.73
2017-08-16T13:58:15.066Z,25.61
2017-08-16T13:59:25.043Z,24.64
2017-08-16T14:00:35.016Z,22.89
2017-08-16T14:01:44.997Z,21.71
2017-08-16T14:02:55.286Z,23.75
2017-08-16T14:04:05.574Z,25.22
2017-08-16T14:05:15.870Z,24.84
2017-08-16T14:06:25.546Z,23.87
2017-08-16T14:07:35.527Z,24.08
2017-08-16T14:08:45.503Z,23.11
2017-08-16T14:09:55.792Z,21.73
2017-08-16T14:11:05.766Z,23.87
2017-08-16T14:12:16.056Z,21.73
2017-08-16T14:13:26.036Z,23.39
2017-08-16T14:14:36.334Z,22.52
2017-08-16T14:15:46.308Z,20.86
2017-08-16T14:16:56.288Z,22.61
2017-08-16T14:18:06.581Z,21.64
2017-08-16T14:19:16.875Z,22.7
2017-08-16T14:20:27.165Z,22.69
2017-08-16T14:21:37.455Z,23.16
2017-08-16T14:22:47.432Z,23.85
2017-08-16T14:23:57.723Z,24.53
2017-08-16T14:25:08.027Z,24.44
2017-08-16T14:26:18.318Z,24.36
2017-08-16T14:27:28.294Z,23.38
2017-08-16T14:28:38.272Z,23.58
2017-08-16T14:29:48.567Z,22.99
2017-08-16T14:30:58.857Z,23.08
2017-08-16T14:32:09.175Z,23.77
2017-08-16T14:33:18.838Z,23.19
2017-08-16T14:34:28.499Z,23.1
2017-08-16T14:35:38.793Z,23.41
2017-08-16T14:36:48.765Z,23.02
2017-08-16T14:37:58.742Z,21.06
2017-08-16T14:39:09.031Z,20.96
2017-08-16T14:40:18.378Z,21.64
2017-08-16T14:41:28.676Z,20.35
2017-08-16T14:42:38.977Z,21.8
2017-08-16T14:43:49.268Z,22.38
2017-08-16T14:44:59.557Z,22.87
2017-08-16T14:46:09.848Z,24.02
2017-08-16T14:47:19.510Z,23.71
2017-08-16T14:48:29.171Z,25.23
2017-08-16T14:49:39.456Z,25.51
2017-08-16T14:50:49.748Z,27.62
2017-08-16T14:52:00.037Z,26.64
2017-08-16T14:53:10.010Z,26.75
2017-08-16T14:54:20.240Z,26.84
2017-08-16T14:55:30.214Z,24.93
2017-08-16T14:56:39.871Z,24.45
2017-08-16T14:57:50.161Z,24.46
2017-08-16T14:59:00.135Z,25.8
2017-08-16T15:00:10.425Z,25.6
2017-08-16T15:01:20.716Z,25.49
2017-08-16T15:02:30.375Z,24.71
2017-08-16T15:03:40.350Z,26.47
2017-08-16T15:04:50.641Z,24.72